createdAt,value
2022-12-18T00:00:12.975Z,-6.73
2022-12-18T00:01:12.955Z,-6.84
2022-12-18T00:02:13.004Z,-6.86
2022-12-18T00:03:13.095Z,-6.86
2022-12-18T00:04:13.049Z,-6.82
2022-12-18T00:05:12.901Z,-6.84
2022-12-18T00:06:12.921Z,-6.79
2022-12-18T00:07:12.901Z,-6.76
2022-12-18T00:08:12.871Z,-6.68
2022-12-18T00:09:12.861Z,-6.63
2022-12-18T00:10:15.434Z,-6.58
2022-12-18T00:11:12.845Z,-6.64
2022-12-18T00:13:12.808Z,-6.71
2022-12-18T00:14:12.791Z,-6.68
2022-12-18T00:15:12.793Z,-6.70
2022-12-18T00:16:12.856Z,-6.67
2022-12-18T00:17:12.840Z,-6.64
2022-12-18T00:18:16.099Z,-6.64
2022-12-18T00:19:13.765Z,-6.66
2022-12-18T00:20:12.733Z,-6.68
2022-12-18T00:21:12.731Z,-6.71
2022-12-18T00:22:12.715Z,-6.78
2022-12-18T00:23:12.712Z,-6.79
2022-12-18T00:24:12.698Z,-6.85
2022-12-18T00:25:12.663Z,-6.85
2022-12-18T00:26:12.640Z,-6.81
2022-12-18T00:27:12.658Z,-6.79
2022-12-18T00:28:12.617Z,-6.76
2022-12-18T00:29:12.609Z,-6.75
2022-12-18T00:30:12.596Z,-6.71
2022-12-18T00:31:12.690Z,-6.68
2022-12-18T00:32:12.638Z,-6.66
2022-12-18T00:33:12.558Z,-6.66
2022-12-18T00:34:12.576Z,-6.64
2022-12-18T00:35:12.557Z,-6.67
2022-12-18T00:36:12.589Z,-6.71
2022-12-18T00:37:16.846Z,-6.79
2022-12-18T00:38:13.498Z,-6.86
2022-12-18T00:39:12.477Z,-6.91
2022-12-18T00:40:12.457Z,-6.95
2022-12-18T00:41:12.456Z,-6.95
2022-12-18T00:42:12.427Z,-6.92
2022-12-18T00:43:12.457Z,-6.95
2022-12-18T00:44:12.415Z,-6.95
2022-12-18T00:45:13.295Z,-6.95
2022-12-18T00:46:12.460Z,-6.97
2022-12-18T00:47:12.409Z,-7.00
2022-12-18T00:48:12.385Z,-7.00
2022-12-18T00:49:12.357Z,-7.02
2022-12-18T00:50:12.334Z,-7.03
2022-12-18T00:51:12.355Z,-7.05
2022-12-18T00:52:12.344Z,-7.03
2022-12-18T00:53:12.313Z,-7.00
2022-12-18T00:54:12.308Z,-6.97
2022-12-18T00:55:12.277Z,-7.05
2022-12-18T00:56:12.269Z,-7.13
2022-12-18T00:57:12.253Z,-7.18
2022-12-18T00:58:12.244Z,-7.23
2022-12-18T00:59:12.224Z,-7.20
2022-12-18T01:00:12.209Z,-7.21
2022-12-18T01:01:12.288Z,-7.20
2022-12-18T01:02:12.273Z,-7.17
2022-12-18T01:03:12.274Z,-7.14
2022-12-18T01:04:12.163Z,-7.13
2022-12-18T01:05:12.161Z,-7.17
2022-12-18T01:06:12.132Z,-7.13
2022-12-18T01:07:12.113Z,-7.13
2022-12-18T01:08:12.137Z,-7.10
2022-12-18T01:09:12.094Z,-7.14
2022-12-18T01:10:12.085Z,-7.18
2022-12-18T01:11:12.073Z,-7.24
2022-12-18T01:12:12.062Z,-7.27
2022-12-18T01:13:12.062Z,-7.28
2022-12-18T01:14:12.035Z,-7.27
2022-12-18T01:15:12.022Z,-7.25
2022-12-18T01:16:12.037Z,-7.23
2022-12-18T01:17:12.003Z,-7.20
2022-12-18T01:18:12.022Z,-7.14
2022-12-18T01:19:12.037Z,-7.09
2022-12-18T01:20:11.950Z,-7.06
2022-12-18T01:21:11.960Z,-7.02
2022-12-18T01:22:11.938Z,-6.99
2022-12-18T01:23:11.951Z,-6.97
2022-12-18T01:24:11.902Z,-6.99
2022-12-18T01:25:11.900Z,-7.02
2022-12-18T01:26:11.884Z,-7.03
2022-12-18T01:27:11.871Z,-7.06
2022-12-18T01:28:11.901Z,-7.09
2022-12-18T01:29:11.878Z,-7.17
2022-12-18T01:30:11.844Z,-7.30
2022-12-18T01:31:11.885Z,-7.41
2022-12-18T01:32:11.882Z,-7.48
2022-12-18T01:33:11.849Z,-7.52
2022-12-18T01:34:11.810Z,-7.46
2022-12-18T01:35:11.806Z,-7.44
2022-12-18T01:36:11.794Z,-7.42
2022-12-18T01:37:11.759Z,-7.41
2022-12-18T01:38:11.802Z,-7.41
2022-12-18T01:39:11.738Z,-7.41
2022-12-18T01:40:11.709Z,-7.44
2022-12-18T01:41:11.758Z,-7.42
2022-12-18T01:42:11.709Z,-7.41
2022-12-18T01:43:11.665Z,-7.35
2022-12-18T01:44:11.697Z,-7.36
2022-12-18T01:45:11.677Z,-7.34
2022-12-18T01:46:11.688Z,-7.32
2022-12-18T01:47:11.627Z,-7.30
2022-12-18T01:48:11.607Z,-7.28
2022-12-18T01:49:11.620Z,-7.32
2022-12-18T01:50:11.608Z,-7.34
2022-12-18T01:51:11.596Z,-7.35
2022-12-18T01:52:11.577Z,-7.34
2022-12-18T01:53:11.575Z,-7.30
2022-12-18T01:54:11.557Z,-7.34
2022-12-18T01:55:11.596Z,-7.38
2022-12-18T01:56:11.496Z,-7.45
2022-12-18T01:57:11.496Z,-7.46
2022-12-18T01:58:11.486Z,-7.48
2022-12-18T01:59:11.487Z,-7.52
2022-12-18T02:00:11.456Z,-7.53
2022-12-18T02:01:11.492Z,-7.53
2022-12-18T02:02:11.506Z,-7.55
2022-12-18T02:03:11.520Z,-7.57
2022-12-18T02:04:11.425Z,-7.59
2022-12-18T02:05:11.397Z,-7.62
2022-12-18T02:06:11.385Z,-7.64
2022-12-18T02:07:11.376Z,-7.67
2022-12-18T02:08:11.353Z,-7.70
2022-12-18T02:09:11.365Z,-7.73
2022-12-18T02:10:11.337Z,-7.74
2022-12-18T02:11:11.314Z,-7.77
2022-12-18T02:12:11.306Z,-7.80
2022-12-18T02:13:11.294Z,-7.78
2022-12-18T02:14:11.303Z,-7.81
2022-12-18T02:15:11.264Z,-7.83
2022-12-18T02:16:11.270Z,-7.83
2022-12-18T02:17:11.243Z,-7.83
2022-12-18T02:18:11.231Z,-7.85
2022-12-18T02:19:11.236Z,-7.84
2022-12-18T02:20:11.206Z,-7.85
2022-12-18T02:21:11.201Z,-7.91
2022-12-18T02:22:11.183Z,-7.89
2022-12-18T02:23:11.173Z,-7.91
2022-12-18T02:24:11.174Z,-7.92
2022-12-18T02:25:11.152Z,-7.89
2022-12-18T02:26:11.125Z,-7.88
2022-12-18T02:27:11.133Z,-7.83
2022-12-18T02:28:11.103Z,-7.77
2022-12-18T02:29:11.121Z,-7.71
2022-12-18T02:30:11.078Z,-7.70
2022-12-18T02:31:11.159Z,-7.70
2022-12-18T02:32:11.081Z,-7.73
2022-12-18T02:33:11.048Z,-7.75
2022-12-18T02:34:11.027Z,-7.74
2022-12-18T02:35:11.037Z,-7.75
2022-12-18T02:36:10.999Z,-7.74
2022-12-18T02:37:10.989Z,-7.77
2022-12-18T02:38:11.003Z,-7.77
2022-12-18T02:39:10.976Z,-7.77
2022-12-18T02:40:10.955Z,-7.75
2022-12-18T02:41:10.929Z,-7.77
2022-12-18T02:42:10.941Z,-7.74
2022-12-18T02:43:10.947Z,-7.71
2022-12-18T02:44:10.909Z,-7.74
2022-12-18T02:45:10.916Z,-7.73
2022-12-18T02:46:10.967Z,-7.78
2022-12-18T02:47:10.876Z,-7.83
2022-12-18T02:48:10.910Z,-7.91
2022-12-18T02:49:10.856Z,-7.94
2022-12-18T02:50:10.837Z,-7.98
2022-12-18T02:51:10.827Z,-7.96
2022-12-18T02:52:10.807Z,-7.98
2022-12-18T02:53:10.820Z,-8.05
2022-12-18T02:54:10.778Z,-8.02
2022-12-18T02:55:10.779Z,-7.99
2022-12-18T02:56:10.754Z,-7.98
2022-12-18T02:57:10.745Z,-7.92
2022-12-18T02:58:10.756Z,-7.91
2022-12-18T02:59:10.725Z,-7.88
2022-12-18T03:00:10.706Z,-7.89
2022-12-18T03:01:10.778Z,-7.85
2022-12-18T03:02:10.808Z,-7.89
2022-12-18T03:03:10.738Z,-7.89
2022-12-18T03:04:10.655Z,-7.91
2022-12-18T03:05:10.644Z,-7.94
2022-12-18T03:06:10.636Z,-7.94
2022-12-18T03:07:10.627Z,-7.96
2022-12-18T03:08:10.656Z,-8.03
2022-12-18T03:09:10.613Z,-8.07
2022-12-18T03:10:10.584Z,-8.08
2022-12-18T03:11:10.573Z,-8.13
2022-12-18T03:12:10.565Z,-8.14
2022-12-18T03:13:10.564Z,-8.14
2022-12-18T03:14:10.535Z,-8.21
2022-12-18T03:15:16.014Z,-8.32
2022-12-18T03:16:11.524Z,-8.41
2022-12-18T03:17:10.494Z,-8.49
2022-12-18T03:18:10.514Z,-8.53
2022-12-18T03:19:10.475Z,-8.56
2022-12-18T03:20:10.453Z,-8.59
2022-12-18T03:21:10.453Z,-8.57
2022-12-18T03:22:10.445Z,-8.54
2022-12-18T03:23:10.426Z,-8.54
2022-12-18T03:24:10.423Z,-8.54
2022-12-18T03:25:10.398Z,-8.56
2022-12-18T03:26:10.382Z,-8.62
2022-12-18T03:27:10.375Z,-8.65
2022-12-18T03:28:10.372Z,-8.68
2022-12-18T03:29:10.381Z,-8.65
2022-12-18T03:30:10.352Z,-8.64
2022-12-18T03:31:10.467Z,-8.65
2022-12-18T03:32:10.312Z,-8.64
2022-12-18T03:33:10.299Z,-8.64
2022-12-18T03:34:10.301Z,-8.62
2022-12-18T03:35:10.281Z,-8.62
2022-12-18T03:36:10.264Z,-8.60
2022-12-18T03:37:10.252Z,-8.59
2022-12-18T03:38:10.232Z,-8.62
2022-12-18T03:39:10.250Z,-8.68
2022-12-18T03:40:10.214Z,-8.73
2022-12-18T03:41:10.190Z,-8.77
2022-12-18T03:42:10.191Z,-8.74
2022-12-18T03:43:10.178Z,-8.74
2022-12-18T03:44:10.190Z,-8.77
2022-12-18T03:45:10.150Z,-8.84
2022-12-18T03:46:10.200Z,-8.86
2022-12-18T03:47:10.128Z,-8.92
2022-12-18T03:48:10.117Z,-8.99
2022-12-18T03:49:10.149Z,-9.06
2022-12-18T03:50:12.835Z,-9.12
2022-12-18T03:51:10.081Z,-9.12
2022-12-18T03:52:10.087Z,-9.12
2022-12-18T03:53:10.066Z,-9.10
2022-12-18T03:54:10.056Z,-9.07
2022-12-18T03:55:10.048Z,-9.03
2022-12-18T03:56:10.008Z,-8.96
2022-12-18T03:57:10.009Z,-8.98
2022-12-18T03:58:09.997Z,-8.96
2022-12-18T03:59:10.041Z,-8.95
2022-12-18T04:00:09.987Z,-8.95
2022-12-18T04:01:10.009Z,-8.96
2022-12-18T04:02:10.019Z,-9.03
2022-12-18T04:03:10.010Z,-9.07
2022-12-18T04:04:09.960Z,-9.12
2022-12-18T04:05:09.927Z,-9.14
2022-12-18T04:06:09.899Z,-9.20
2022-12-18T04:07:09.887Z,-9.23
2022-12-18T04:08:09.865Z,-9.27
2022-12-18T04:09:09.858Z,-9.30
2022-12-18T04:10:09.856Z,-9.27
2022-12-18T04:11:09.836Z,-9.23
2022-12-18T04:12:09.816Z,-9.17
2022-12-18T04:13:09.806Z,-9.14
2022-12-18T04:14:11.946Z,-9.14
2022-12-18T04:15:10.794Z,-9.20
2022-12-18T04:16:09.820Z,-9.21
2022-12-18T04:17:09.763Z,-9.23
2022-12-18T04:18:09.742Z,-9.17
2022-12-18T04:19:09.735Z,-9.20
2022-12-18T04:20:09.733Z,-9.24
2022-12-18T04:21:09.704Z,-9.25
2022-12-18T04:22:09.692Z,-9.33
2022-12-18T04:23:09.734Z,-9.39
2022-12-18T04:24:09.673Z,-9.41
2022-12-18T04:25:09.674Z,-9.37
2022-12-18T04:26:09.647Z,-9.37
2022-12-18T04:27:09.642Z,-9.34
2022-12-18T04:28:09.623Z,-9.39
2022-12-18T04:29:09.615Z,-9.37
2022-12-18T04:30:09.624Z,-9.41
2022-12-18T04:31:09.622Z,-9.41
2022-12-18T04:32:09.580Z,-9.45
2022-12-18T04:33:09.553Z,-9.50
2022-12-18T04:34:09.542Z,-9.52
2022-12-18T04:35:09.607Z,-9.53
2022-12-18T04:36:09.535Z,-9.55
2022-12-18T04:37:09.501Z,-9.50
2022-12-18T04:38:09.493Z,-9.46
2022-12-18T04:39:09.512Z,-9.41
2022-12-18T04:40:09.473Z,-9.34
2022-12-18T04:41:09.472Z,-9.28
2022-12-18T04:42:09.441Z,-9.23
2022-12-18T04:43:09.556Z,-9.21
2022-12-18T04:44:09.431Z,-9.20
2022-12-18T04:45:09.401Z,-9.17
2022-12-18T04:46:09.526Z,-9.17
2022-12-18T04:47:09.431Z,-9.14
2022-12-18T04:48:09.379Z,-9.10
2022-12-18T04:49:09.350Z,-9.06
2022-12-18T04:50:09.350Z,-9.06
2022-12-18T04:51:09.354Z,-9.07
2022-12-18T04:52:09.320Z,-9.10
2022-12-18T04:53:09.311Z,-9.12
2022-12-18T04:54:09.309Z,-9.10
2022-12-18T04:55:09.282Z,-9.10
2022-12-18T04:56:09.289Z,-9.06
2022-12-18T04:57:09.267Z,-9.02
2022-12-18T04:58:09.247Z,-8.98
2022-12-18T04:59:09.249Z,-8.99
2022-12-18T05:00:09.229Z,-8.99
2022-12-18T05:01:09.236Z,-9.02
2022-12-18T05:02:09.356Z,-9.03
2022-12-18T05:03:09.186Z,-9.03
2022-12-18T05:04:09.228Z,-9.03
2022-12-18T05:05:09.178Z,-8.98
2022-12-18T05:06:09.190Z,-8.98
2022-12-18T05:07:09.135Z,-8.99
2022-12-18T05:08:09.126Z,-9.03
2022-12-18T05:09:09.115Z,-9.07
2022-12-18T05:10:09.109Z,-9.10
2022-12-18T05:11:09.117Z,-9.13
2022-12-18T05:12:09.065Z,-9.14
2022-12-18T05:13:09.058Z,-9.13
2022-12-18T05:14:09.107Z,-9.10
2022-12-18T05:15:09.035Z,-9.07
2022-12-18T05:16:09.078Z,-9.03
2022-12-18T05:17:09.016Z,-9.03
2022-12-18T05:18:09.046Z,-9.03
2022-12-18T05:19:08.993Z,-9.02
2022-12-18T05:20:08.976Z,-9.02
2022-12-18T05:21:08.983Z,-9.12
2022-12-18T05:22:08.956Z,-9.14
2022-12-18T05:23:08.945Z,-9.13
2022-12-18T05:24:08.926Z,-9.13
2022-12-18T05:25:08.998Z,-9.13
2022-12-18T05:26:09.026Z,-9.14
2022-12-18T05:27:08.894Z,-9.14
2022-12-18T05:28:08.892Z,-9.13
2022-12-18T05:29:08.862Z,-9.13
2022-12-18T05:30:08.855Z,-9.14
2022-12-18T05:31:08.927Z,-9.21
2022-12-18T05:32:08.834Z,-9.25
2022-12-18T05:33:08.812Z,-9.30
2022-12-18T05:34:08.817Z,-9.33
2022-12-18T05:35:08.792Z,-9.37
2022-12-18T05:36:08.813Z,-9.45
2022-12-18T05:37:08.774Z,-9.46
2022-12-18T05:38:08.764Z,-9.45
2022-12-18T05:39:08.744Z,-9.43
2022-12-18T05:40:08.733Z,-9.41
2022-12-18T05:41:08.845Z,-9.35
2022-12-18T05:42:08.728Z,-9.31
2022-12-18T05:43:08.697Z,-9.27
2022-12-18T05:44:08.693Z,-9.27
2022-12-18T05:45:08.682Z,-9.17
2022-12-18T05:46:08.706Z,-9.13
2022-12-18T05:47:08.662Z,-9.12
2022-12-18T05:48:08.632Z,-9.09
2022-12-18T05:49:08.626Z,-9.13
2022-12-18T05:50:08.612Z,-9.23
2022-12-18T05:51:08.591Z,-9.21
2022-12-18T05:52:08.601Z,-9.24
2022-12-18T05:53:08.588Z,-9.27
2022-12-18T05:54:15.726Z,-9.27
2022-12-18T05:55:08.556Z,-9.28
2022-12-18T05:56:08.538Z,-9.30
2022-12-18T05:57:08.528Z,-9.31
2022-12-18T05:58:08.517Z,-9.35
2022-12-18T05:59:08.517Z,-9.37
2022-12-18T06:00:08.497Z,-9.37
2022-12-18T06:01:08.468Z,-9.41
2022-12-18T06:02:08.610Z,-9.46
2022-12-18T06:03:08.632Z,-9.50
2022-12-18T06:04:08.493Z,-9.58
2022-12-18T06:05:08.421Z,-9.61
2022-12-18T06:06:08.418Z,-9.67
2022-12-18T06:07:08.414Z,-9.65
2022-12-18T06:08:08.400Z,-9.67
2022-12-18T06:09:08.375Z,-9.67
2022-12-18T06:10:08.365Z,-9.67
2022-12-18T06:11:08.354Z,-9.65
2022-12-18T06:12:08.374Z,-9.67
2022-12-18T06:13:08.318Z,-9.65
2022-12-18T06:14:08.315Z,-9.60
2022-12-18T06:15:08.304Z,-9.58
2022-12-18T06:16:08.364Z,-9.56
2022-12-18T06:17:08.324Z,-9.53
2022-12-18T06:18:08.265Z,-9.50
2022-12-18T06:19:08.246Z,-9.49
2022-12-18T06:20:08.247Z,-9.50
2022-12-18T06:21:08.223Z,-9.50
2022-12-18T06:22:08.244Z,-9.47
2022-12-18T06:23:08.204Z,-9.47
2022-12-18T06:24:08.193Z,-9.49
2022-12-18T06:25:08.196Z,-9.50
2022-12-18T06:26:08.194Z,-9.55
2022-12-18T06:27:08.173Z,-9.56
2022-12-18T06:28:08.143Z,-9.63
2022-12-18T06:29:08.133Z,-9.65
2022-12-18T06:30:08.113Z,-9.64
2022-12-18T06:31:08.135Z,-9.67
2022-12-18T06:32:08.113Z,-9.64
2022-12-18T06:33:08.082Z,-9.64
2022-12-18T06:34:08.062Z,-9.71
2022-12-18T06:35:08.063Z,-9.73
2022-12-18T06:36:08.043Z,-9.76
2022-12-18T06:37:08.053Z,-9.76
2022-12-18T06:38:08.021Z,-9.78
2022-12-18T06:39:08.011Z,-9.82
2022-12-18T06:40:07.997Z,-9.82
2022-12-18T06:41:07.981Z,-9.81
2022-12-18T06:42:07.999Z,-9.82
2022-12-18T06:43:07.960Z,-9.81
2022-12-18T06:44:07.946Z,-9.81
2022-12-18T06:45:07.931Z,-9.76
2022-12-18T06:46:07.948Z,-9.78
2022-12-18T06:47:07.921Z,-9.78
2022-12-18T06:48:07.908Z,-9.82
2022-12-18T06:49:07.890Z,-9.85
2022-12-18T06:50:07.881Z,-9.85
2022-12-18T06:51:07.926Z,-9.81
2022-12-18T06:52:07.861Z,-9.79
2022-12-18T06:53:07.829Z,-9.78
2022-12-18T06:54:07.827Z,-9.74
2022-12-18T06:55:07.817Z,-9.71
2022-12-18T06:56:10.372Z,-9.71
2022-12-18T06:57:07.808Z,-9.70
2022-12-18T06:58:07.770Z,-9.67
2022-12-18T06:59:07.761Z,-9.68
2022-12-18T07:00:07.759Z,-9.73
2022-12-18T07:01:07.846Z,-9.71
2022-12-18T07:02:07.861Z,-9.70
2022-12-18T07:03:07.754Z,-9.68
2022-12-18T07:04:07.708Z,-9.71
2022-12-18T07:05:10.942Z,-9.71
2022-12-18T07:06:07.678Z,-9.70
2022-12-18T07:07:07.679Z,-9.71
2022-12-18T07:08:07.659Z,-9.71
2022-12-18T07:09:07.645Z,-9.70
2022-12-18T07:10:07.636Z,-9.68
2022-12-18T07:11:07.608Z,-9.70
2022-12-18T07:12:07.627Z,-9.73
2022-12-18T07:13:07.585Z,-9.78
2022-12-18T07:14:07.587Z,-9.78
2022-12-18T07:15:07.557Z,-9.79
2022-12-18T07:16:12.876Z,-9.82
2022-12-18T07:17:08.560Z,-9.84
2022-12-18T07:18:07.536Z,-9.86
2022-12-18T07:19:07.517Z,-9.88
2022-12-18T07:20:07.506Z,-9.88
2022-12-18T07:21:07.512Z,-9.86
2022-12-18T07:22:07.505Z,-9.82
2022-12-18T07:23:07.475Z,-9.79
2022-12-18T07:24:07.485Z,-9.78
2022-12-18T07:25:07.446Z,-9.78
2022-12-18T07:26:07.436Z,-9.81
2022-12-18T07:27:08.015Z,-9.81
2022-12-18T07:28:08.206Z,-9.78
2022-12-18T07:29:07.385Z,-9.79
2022-12-18T07:30:07.385Z,-9.76
2022-12-18T07:31:07.373Z,-9.73
2022-12-18T07:32:07.397Z,-9.74
2022-12-18T07:33:07.364Z,-9.74
2022-12-18T07:34:07.334Z,-9.74
2022-12-18T07:35:07.321Z,-9.71
2022-12-18T07:36:07.314Z,-9.67
2022-12-18T07:37:07.294Z,-9.68
2022-12-18T07:38:07.304Z,-9.65
2022-12-18T07:39:07.271Z,-9.61
2022-12-18T07:40:07.266Z,-9.60
2022-12-18T07:41:07.251Z,-9.64
2022-12-18T07:42:07.234Z,-9.63
2022-12-18T07:43:07.244Z,-9.61
2022-12-18T07:44:07.212Z,-9.64
2022-12-18T07:45:07.216Z,-9.63
2022-12-18T07:46:07.256Z,-9.60
2022-12-18T07:47:11.763Z,-9.60
2022-12-18T07:48:08.182Z,-9.58
2022-12-18T07:49:07.159Z,-9.56
2022-12-18T07:50:07.149Z,-9.60
2022-12-18T07:51:07.130Z,-9.58
2022-12-18T07:52:07.112Z,-9.55
2022-12-18T07:53:07.122Z,-9.53
2022-12-18T07:54:07.101Z,-9.49
2022-12-18T07:55:07.070Z,-9.49
2022-12-18T07:57:16.495Z,-9.37
2022-12-18T07:58:08.057Z,-9.30
2022-12-18T07:59:07.032Z,-9.27
2022-12-18T08:00:07.030Z,-9.24
2022-12-18T08:01:07.056Z,-9.17
2022-12-18T08:02:07.151Z,-9.16
2022-12-18T08:03:07.074Z,-9.13
2022-12-18T08:04:06.980Z,-9.12
2022-12-18T08:05:07.139Z,-9.10
2022-12-18T08:06:06.948Z,-9.04
2022-12-18T08:07:06.929Z,-9.04
2022-12-18T08:08:06.937Z,-9.04
2022-12-18T08:09:06.900Z,-8.98
2022-12-18T08:10:06.900Z,-8.94
2022-12-18T08:11:06.887Z,-8.91
2022-12-18T08:12:06.877Z,-8.86
2022-12-18T08:13:06.875Z,-8.82
2022-12-18T08:14:06.847Z,-8.84
2022-12-18T08:15:06.834Z,-8.84
2022-12-18T08:16:06.816Z,-8.84
2022-12-18T08:17:06.837Z,-8.82
2022-12-18T08:18:11.365Z,-8.85
2022-12-18T08:19:07.797Z,-8.89
2022-12-18T08:20:06.776Z,-8.89
2022-12-18T08:21:06.755Z,-8.86
2022-12-18T08:22:06.748Z,-8.80
2022-12-18T08:23:06.760Z,-8.73
2022-12-18T08:24:06.747Z,-8.67
2022-12-18T08:25:06.717Z,-8.62
2022-12-18T08:26:06.697Z,-8.57
2022-12-18T08:27:28.345Z,-8.49
2022-12-18T08:28:07.676Z,-8.39
2022-12-18T08:29:06.675Z,-8.31
2022-12-18T08:30:06.637Z,-8.21
2022-12-18T08:31:06.671Z,-8.14
2022-12-18T08:32:06.653Z,-8.08
2022-12-18T08:33:06.682Z,-8.05
2022-12-18T08:34:06.616Z,-7.99
2022-12-18T08:35:06.594Z,-7.99
2022-12-18T08:36:06.577Z,-8.03
2022-12-18T08:37:06.576Z,-8.05
2022-12-18T08:38:06.545Z,-8.03
2022-12-18T08:39:06.555Z,-8.03
2022-12-18T08:40:06.522Z,-8.03
2022-12-18T08:41:06.514Z,-7.99
2022-12-18T08:42:10.120Z,-7.94
2022-12-18T08:43:06.484Z,-7.89
2022-12-18T08:44:06.483Z,-7.88
2022-12-18T08:45:06.464Z,-7.85
2022-12-18T08:46:06.516Z,-7.83
2022-12-18T08:47:06.429Z,-7.78
2022-12-18T08:48:06.424Z,-7.70
2022-12-18T08:49:06.431Z,-7.70
2022-12-18T08:50:06.398Z,-7.63
2022-12-18T08:51:06.391Z,-7.59
2022-12-18T08:52:06.374Z,-7.55
2022-12-18T08:53:06.374Z,-7.52
2022-12-18T08:54:06.455Z,-7.50
2022-12-18T08:55:06.339Z,-7.50
2022-12-18T08:56:06.321Z,-7.50
2022-12-18T08:57:06.319Z,-7.50
2022-12-18T08:58:06.297Z,-7.48
2022-12-18T08:59:06.301Z,-7.50
2022-12-18T09:00:06.276Z,-7.48
2022-12-18T09:01:06.338Z,-7.45
2022-12-18T09:02:06.482Z,-7.44
2022-12-18T09:03:06.269Z,-7.39
2022-12-18T09:04:06.251Z,-7.36
2022-12-18T09:05:06.201Z,-7.32
2022-12-18T09:06:06.189Z,-5.91
2022-12-18T09:07:06.191Z,-4.05
2022-12-18T09:08:06.162Z,-3.07
2022-12-18T09:09:06.202Z,-3.58
2022-12-18T09:10:06.147Z,-4.27
2022-12-18T09:11:06.150Z,-4.90
2022-12-18T09:12:06.117Z,-5.38
2022-12-18T09:13:06.118Z,-5.71
2022-12-18T09:14:06.117Z,-5.58
2022-12-18T09:15:06.088Z,-4.44
2022-12-18T09:16:06.080Z,-3.33
2022-12-18T09:17:06.116Z,-2.50
2022-12-18T09:18:06.040Z,-2.39
2022-12-18T09:19:06.059Z,-3.11
2022-12-18T09:20:06.029Z,-3.77
2022-12-18T09:21:06.018Z,-4.23
2022-12-18T09:22:05.997Z,-4.69
2022-12-18T09:23:05.986Z,-4.95
2022-12-18T09:24:08.870Z,-5.20
2022-12-18T09:25:05.968Z,-5.39
2022-12-18T09:26:05.948Z,-5.55
2022-12-18T09:27:05.947Z,-5.71
2022-12-18T09:28:05.926Z,-5.84
2022-12-18T09:29:05.936Z,-5.94
2022-12-18T09:30:05.905Z,-5.99
2022-12-18T09:31:05.897Z,-5.99
2022-12-18T09:32:05.871Z,-5.99
2022-12-18T09:33:05.865Z,-5.95
2022-12-18T09:34:05.845Z,-5.92
2022-12-18T09:35:05.853Z,-5.92
2022-12-18T09:36:05.816Z,-5.92
2022-12-18T09:37:05.816Z,-5.89
2022-12-18T09:38:05.785Z,-5.92
2022-12-18T09:39:08.584Z,-5.94
2022-12-18T09:40:05.787Z,-5.91
2022-12-18T09:41:05.767Z,-5.89
2022-12-18T09:42:05.735Z,-6.02
2022-12-18T09:43:05.722Z,-6.06
2022-12-18T09:44:05.715Z,-6.12
2022-12-18T09:45:05.773Z,-6.10
2022-12-18T09:46:05.732Z,-6.09
2022-12-18T09:47:05.682Z,-6.07
2022-12-18T09:48:05.684Z,-6.02
2022-12-18T09:49:05.662Z,-5.99
2022-12-18T09:50:05.653Z,-5.99
2022-12-18T09:51:05.643Z,-5.99
2022-12-18T09:52:05.614Z,-5.99
2022-12-18T09:53:05.612Z,-6.03
2022-12-18T09:54:05.604Z,-6.06
2022-12-18T09:55:05.604Z,-6.05
2022-12-18T09:56:05.574Z,-5.97
2022-12-18T09:57:05.565Z,-5.88
2022-12-18T09:58:05.559Z,-5.81
2022-12-18T09:59:05.567Z,-5.76
2022-12-18T10:00:05.542Z,-5.70
2022-12-18T10:01:05.543Z,-5.64
2022-12-18T10:02:05.567Z,-5.55
2022-12-18T10:03:05.601Z,-5.49
2022-12-18T10:04:05.528Z,-5.46
2022-12-18T10:05:05.484Z,-5.41
2022-12-18T10:06:05.453Z,-5.38
2022-12-18T10:07:09.166Z,-5.37
2022-12-18T10:08:05.423Z,-5.19
2022-12-18T10:09:05.417Z,-5.06
2022-12-18T10:10:05.418Z,-5.02
2022-12-18T10:11:05.453Z,-5.05
2022-12-18T10:12:06.424Z,-5.06
2022-12-18T10:13:05.401Z,-5.08
2022-12-18T10:14:06.602Z,-5.09
2022-12-18T10:15:05.706Z,-5.09
2022-12-18T10:16:05.357Z,-5.10
2022-12-18T10:17:05.322Z,-5.10
2022-12-18T10:18:05.311Z,-5.06
2022-12-18T10:19:05.293Z,-5.06
2022-12-18T10:20:05.445Z,-5.01
2022-12-18T10:21:05.268Z,-5.00
2022-12-18T10:22:05.250Z,-4.95
2022-12-18T10:23:05.268Z,-4.94
2022-12-18T10:24:05.243Z,-4.90
2022-12-18T10:25:05.240Z,-4.88
2022-12-18T10:26:05.234Z,-4.84
2022-12-18T10:27:05.277Z,-4.81
2022-12-18T10:28:05.211Z,-4.80
2022-12-18T10:29:05.881Z,-4.79
2022-12-18T10:30:05.159Z,-4.76
2022-12-18T10:31:05.186Z,-4.74
2022-12-18T10:32:05.109Z,-4.71
2022-12-18T10:33:05.161Z,-4.73
2022-12-18T10:34:05.088Z,-4.73
2022-12-18T10:35:05.104Z,-4.70
2022-12-18T10:36:05.067Z,-4.69
2022-12-18T10:37:05.058Z,-4.67
2022-12-18T10:38:05.038Z,-4.65
2022-12-18T10:39:05.103Z,-4.65
2022-12-18T10:40:05.038Z,-4.71
2022-12-18T10:41:05.017Z,-4.79
2022-12-18T10:42:05.008Z,-4.83
2022-12-18T10:43:04.987Z,-4.83
2022-12-18T10:44:04.977Z,-4.79
2022-12-18T10:45:04.973Z,-4.77
2022-12-18T10:46:05.014Z,-4.71
2022-12-18T10:47:08.751Z,-4.67
2022-12-18T10:48:05.939Z,-4.65
2022-12-18T10:49:04.927Z,-4.61
2022-12-18T10:50:04.918Z,-4.59
2022-12-18T10:51:12.720Z,-4.55
2022-12-18T10:52:05.868Z,-4.55
2022-12-18T10:53:04.870Z,-4.49
2022-12-18T10:54:06.301Z,-4.44
2022-12-18T10:55:04.846Z,-4.41
2022-12-18T10:56:04.848Z,-4.41
2022-12-18T10:57:04.820Z,-4.37
2022-12-18T10:58:04.812Z,-4.37
2022-12-18T10:59:10.786Z,-4.35
2022-12-18T11:00:04.779Z,-4.31
2022-12-18T11:01:04.785Z,-4.27
2022-12-18T11:02:04.890Z,-4.22
2022-12-18T11:03:04.918Z,-4.14
2022-12-18T11:04:04.784Z,-4.09
2022-12-18T11:05:04.779Z,-4.06
2022-12-18T11:06:04.713Z,-4.02
2022-12-18T11:07:04.705Z,-3.96
2022-12-18T11:08:04.679Z,-3.94
2022-12-18T11:09:09.503Z,-3.90
2022-12-18T11:10:05.655Z,-3.85
2022-12-18T11:11:04.664Z,-3.83
2022-12-18T11:12:04.638Z,-3.80
2022-12-18T11:13:04.666Z,-3.78
2022-12-18T11:14:04.605Z,-3.77
2022-12-18T11:15:04.604Z,-3.78
2022-12-18T11:16:04.676Z,-3.77
2022-12-18T11:18:05.544Z,-3.69
2022-12-18T11:19:04.553Z,-3.66
2022-12-18T11:20:04.537Z,-3.65
2022-12-18T11:21:04.533Z,-3.65
2022-12-18T11:22:04.484Z,-3.66
2022-12-18T11:23:04.492Z,-3.68
2022-12-18T11:24:04.474Z,-3.65
2022-12-18T11:26:05.462Z,-3.59
2022-12-18T11:27:04.434Z,-3.56
2022-12-18T11:28:04.426Z,-3.53
2022-12-18T11:29:04.424Z,-3.50
2022-12-18T11:30:04.391Z,-3.47
2022-12-18T11:31:04.484Z,-3.44
2022-12-18T11:32:04.389Z,-3.43
2022-12-18T11:33:04.352Z,-3.44
2022-12-18T11:34:28.153Z,-3.46
2022-12-18T11:35:05.368Z,-3.40
2022-12-18T11:36:04.302Z,-3.38
2022-12-18T11:37:04.489Z,-3.32
2022-12-18T11:38:04.292Z,-3.27
2022-12-18T11:39:04.281Z,-3.25
2022-12-18T11:40:04.266Z,-3.23
2022-12-18T11:41:04.261Z,-3.20
2022-12-18T11:42:04.262Z,-3.20
2022-12-18T11:43:04.237Z,-3.23
2022-12-18T11:44:04.219Z,-3.23
2022-12-18T11:45:04.217Z,-3.19
2022-12-18T11:46:04.235Z,-3.19
2022-12-18T11:47:04.317Z,-3.19
2022-12-18T11:48:04.159Z,-3.17
2022-12-18T11:49:04.157Z,-3.12
2022-12-18T11:50:04.141Z,-3.08
2022-12-18T11:51:04.121Z,-3.04
2022-12-18T11:52:04.130Z,-3.01
2022-12-18T11:53:06.167Z,-2.99
2022-12-18T11:54:04.071Z,-2.94
2022-12-18T11:55:04.067Z,-2.98
2022-12-18T11:56:04.074Z,-2.93
2022-12-18T11:57:04.058Z,-2.90
2022-12-18T11:58:04.057Z,-2.89
2022-12-18T11:59:04.029Z,-2.86
2022-12-18T12:00:04.001Z,-2.83
2022-12-18T12:01:04.010Z,-2.81
2022-12-18T12:02:04.097Z,-2.81
2022-12-18T12:03:04.205Z,-2.80
2022-12-18T12:04:04.058Z,-2.78
2022-12-18T12:05:03.947Z,-2.78
2022-12-18T12:06:03.936Z,-2.75
2022-12-18T12:07:03.955Z,-2.70
2022-12-18T12:08:03.919Z,-2.70
2022-12-18T12:09:03.929Z,-2.68
2022-12-18T12:10:03.878Z,-2.65
2022-12-18T12:11:03.888Z,-2.66
2022-12-18T12:12:03.857Z,-2.62
2022-12-18T12:13:03.920Z,-2.63
2022-12-18T12:14:03.834Z,-2.61
2022-12-18T12:15:03.816Z,-2.57
2022-12-18T12:16:03.925Z,-2.58
2022-12-18T12:17:03.797Z,-2.57
2022-12-18T12:18:08.153Z,-2.55
2022-12-18T12:19:04.852Z,-2.55
2022-12-18T12:20:03.763Z,-2.55
2022-12-18T12:21:03.755Z,-2.52
2022-12-18T12:22:03.725Z,-2.51
2022-12-18T12:23:03.736Z,-2.50
2022-12-18T12:24:03.710Z,-2.50
2022-12-18T12:25:03.701Z,-2.51
2022-12-18T12:26:03.735Z,-2.50
2022-12-18T12:27:03.667Z,-2.47
2022-12-18T12:28:03.665Z,-2.48
2022-12-18T12:29:03.645Z,-2.45
2022-12-18T12:30:03.638Z,-2.44
2022-12-18T12:31:03.673Z,-2.40
2022-12-18T12:32:03.684Z,-2.42
2022-12-18T12:33:03.585Z,-2.42
2022-12-18T12:34:03.644Z,-2.39
2022-12-18T12:35:09.226Z,-2.39
2022-12-18T12:36:04.544Z,-2.37
2022-12-18T12:37:03.535Z,-2.39
2022-12-18T12:38:03.513Z,-2.37
2022-12-18T12:39:03.589Z,-2.37
2022-12-18T12:40:15.257Z,-2.39
2022-12-18T12:41:04.571Z,-2.37
2022-12-18T12:42:03.461Z,-2.36
2022-12-18T12:43:03.455Z,-2.33
2022-12-18T12:44:03.454Z,-2.33
2022-12-18T12:45:03.447Z,-2.36
2022-12-18T12:46:03.640Z,-2.39
2022-12-18T12:47:03.433Z,-2.36
2022-12-18T12:48:03.429Z,-2.36
2022-12-18T12:49:03.394Z,-2.36
2022-12-18T12:50:03.463Z,-2.34
2022-12-18T12:51:03.355Z,-2.34
2022-12-18T12:52:03.419Z,-2.32
2022-12-18T12:53:03.352Z,-2.32
2022-12-18T12:54:03.366Z,-2.32
2022-12-18T12:55:03.306Z,-2.28
2022-12-18T12:56:03.283Z,-2.26